| Date | Time | Temp. (oF) | Dew Point (oF) | Rel. Hum. (%) | Press. (in.) | Wind Dir. | Wind Speed (mph) | Hourly Rainfall (in.) |
|
|---|---|---|---|---|---|---|---|---|---|
| 1 | 02/05 | 00:00 | 33 | 32 | 100 | 30.14 | WSW | 0 | 0.00 |
| 2 | 02/04 | 23:00 | 33 | 32 | 100 | 30.14 | S | 0 | 0.00 |
| 3 | 02/04 | 22:00 | 33 | 32 | 100 | 30.15 | WSW | 2 | 0.00 |
| 4 | 02/04 | 21:00 | 33 | 32 | 100 | 30.17 | SW | 1 | 0.00 |
| 5 | 02/04 | 20:00 | 33 | 32 | 100 | 30.16 | SSW | 1 | 0.00 |
| 6 | 02/04 | 19:00 | 33 | 32 | 100 | 30.17 | SSW | 2 | 0.00 |
| 7 | 02/04 | 18:00 | 33 | 32 | 100 | 30.16 | SSW | 6 | 0.00 |
| 8 | 02/04 | 17:00 | 34 | 33 | 100 | 30.18 | WSW | 4 | 0.00 |
| 9 | 02/04 | 16:00 | 35 | 33 | 96 | 30.19 | WSW | 4 | 0.00 |
| 10 | 02/04 | 15:00 | 37 | 32 | 83 | 30.19 | SW | 0 | 0.00 |
| 11 | 02/04 | 14:00 | 39 | 29 | 68 | 30.21 | NNE | 0 | 0.00 |
| 12 | 02/04 | 13:00 | 40 | 29 | 67 | 30.24 | NNE | 3 | 0.00 |
| 13 | 02/04 | 12:00 | 39 | 28 | 66 | 30.27 | NNE | 9 | 0.00 |
| 14 | 02/04 | 11:00 | 39 | 31 | 73 | 30.29 | E | 6 | 0.00 |
| 15 | 02/04 | 10:00 | 34 | 31 | 92 | 30.31 | ESE | 2 | 0.00 |
| 16 | 02/04 | 09:00 | 31 | 30 | 99 | 30.33 | S | 0 | 0.00 |
| 17 | 02/04 | 08:00 | 28 | 27 | 100 | 30.34 | ENE | 0 | 0.00 |
| 18 | 02/04 | 07:00 | 27 | 27 | 100 | 30.34 | SSW | 0 | 0.00 |
| 19 | 02/04 | 06:00 | 27 | 27 | 100 | 30.33 | N | 2 | 0.00 |
| 20 | 02/04 | 05:00 | 26 | 26 | 100 | 30.34 | NNE | 4 | 0.00 |
| 21 | 02/04 | 04:00 | 24 | 23 | 100 | 30.34 | WSW | 0 | 0.00 |
| 22 | 02/04 | 03:00 | 25 | 24 | 100 | 30.35 | S | 0 | 0.00 |
| 23 | 02/04 | 02:00 | 26 | 26 | 100 | 30.36 | NNE | 0 | 0.00 |
| 24 | 02/04 | 01:00 | 27 | 26 | 96 | 30.38 | ESE | 0 | 0.00 |